sensor_id;sensor_type;location;lat;lon;timestamp;pressure;altitude;pressure_sealevel;temperature;humidity
71764;BME280;59602;52.142;5.408;2022-12-26T00:00:21;101133.41;;;8.81;100.00
71764;BME280;59602;52.142;5.408;2022-12-26T00:02:47;101132.63;;;8.81;100.00
71764;BME280;59602;52.142;5.408;2022-12-26T00:05:14;101122.94;;;8.80;100.00
71764;BME280;59602;52.142;5.408;2022-12-26T00:07:41;101129.47;;;8.79;100.00
71764;BME280;59602;52.142;5.408;2022-12-26T00:10:07;101124.81;;;8.79;100.00
71764;BME280;59602;52.142;5.408;2022-12-26T00:12:34;101132.63;;;8.81;100.00
71764;BME280;59602;52.142;5.408;2022-12-26T00:15:01;101131.06;;;8.80;100.00
71764;BME280;59602;52.142;5.408;2022-12-26T00:17:27;101142.69;;;8.80;100.00
71764;BME280;59602;52.142;5.408;2022-12-26T00:19:54;101138.03;;;8.81;100.00
71764;BME280;59602;52.142;5.408;2022-12-26T00:22:20;101130.69;;;8.81;100.00
71764;BME280;59602;52.142;5.408;2022-12-26T00:24:47;101141.94;;;8.83;100.00
71764;BME280;59602;52.142;5.408;2022-12-26T00:27:13;101141.94;;;8.83;100.00
71764;BME280;59602;52.142;5.408;2022-12-26T00:29:40;101142.72;;;8.84;100.00
71764;BME280;59602;52.142;5.408;2022-12-26T00:32:07;101152.09;;;8.86;100.00
71764;BME280;59602;52.142;5.408;2022-12-26T00:34:33;101151.66;;;8.84;100.00
71764;BME280;59602;52.142;5.408;2022-12-26T00:37:00;101162.50;;;8.84;100.00
71764;BME280;59602;52.142;5.408;2022-12-26T00:39:26;101165.22;;;8.84;100.00
71764;BME280;59602;52.142;5.408;2022-12-26T00:41:53;101157.09;;;8.84;100.00
71764;BME280;59602;52.142;5.408;2022-12-26T00:44:19;101161.72;;;8.84;100.00
71764;BME280;59602;52.142;5.408;2022-12-26T00:46:46;101162.50;;;8.84;100.00
71764;BME280;59602;52.142;5.408;2022-12-26T00:49:13;101162.50;;;8.84;100.00
71764;BME280;59602;52.142;5.408;2022-12-26T00:51:39;101171.44;;;8.85;100.00
71764;BME280;59602;52.142;5.408;2022-12-26T00:54:06;101172.19;;;8.85;100.00
71764;BME280;59602;52.142;5.408;2022-12-26T00:56:32;101170.66;;;8.84;100.00
71764;BME280;59602;52.142;5.408;2022-12-26T00:58:59;101166.00;;;8.85;100.00
71764;BME280;59602;52.142;5.408;2022-12-26T01:01:26;101181.94;;;8.86;100.00
71764;BME280;59602;52.142;5.408;2022-12-26T01:03:57;101185.75;;;8.85;100.00
71764;BME280;59602;52.142;5.408;2022-12-26T01:06:24;101190.41;;;8.85;100.00
71764;BME280;59602;52.142;5.408;2022-12-26T01:08:52;101184.56;;;8.83;100.00
71764;BME280;59602;52.142;5.408;2022-12-26T01:11:18;101176.78;;;8.81;100.00
71764;BME280;59602;52.142;5.408;2022-12-26T01:14:04;101176.00;;;8.81;100.00
71764;BME280;59602;52.142;5.408;2022-12-26T01:16:31;101166.72;;;8.82;100.00
71764;BME280;59602;52.142;5.408;2022-12-26T01:18:58;101170.56;;;8.81;100.00
71764;BME280;59602;52.142;5.408;2022-12-26T01:21:24;101174.44;;;8.80;100.00
71764;BME280;59602;52.142;5.408;2022-12-26T01:23:51;101179.06;;;8.79;100.00
71764;BME280;59602;52.142;5.408;2022-12-26T01:26:17;101173.28;;;8.81;100.00
71764;BME280;59602;52.142;5.408;2022-12-26T01:28:47;101171.34;;;8.81;100.00
71764;BME280;59602;52.142;5.408;2022-12-26T01:31:19;101164.41;;;8.84;100.00
71764;BME280;59602;52.142;5.408;2022-12-26T01:33:46;101163.22;;;8.81;100.00
71764;BME280;59602;52.142;5.408;2022-12-26T01:36:14;101175.66;;;8.82;100.00
71764;BME280;59602;52.142;5.408;2022-12-26T01:38:40;101164.81;;;8.82;100.00
71764;BME280;59602;52.142;5.408;2022-12-26T01:41:07;101168.28;;;8.83;100.00
71764;BME280;59602;52.142;5.408;2022-12-26T01:43:58;101166.34;;;8.83;100.00
71764;BME280;59602;52.142;5.408;2022-12-26T01:46:38;101166.34;;;8.83;100.00
71764;BME280;59602;52.142;5.408;2022-12-26T01:49:10;101172.56;;;8.84;100.00
71764;BME280;59602;52.142;5.408;2022-12-26T01:51:42;101166.34;;;8.83;100.00
71764;BME280;59602;52.142;5.408;2022-12-26T01:54:11;101172.94;;;8.82;100.00
71764;BME280;59602;52.142;5.408;2022-12-26T01:57:01;101190.75;;;8.83;100.00
71764;BME280;59602;52.142;5.408;2022-12-26T01:59:31;101179.56;;;8.85;100.00
71764;BME280;59602;52.142;5.408;2022-12-26T02:02:02;101172.19;;;8.85;100.00
71764;BME280;59602;52.142;5.408;2022-12-26T02:04:35;101190.06;;;8.86;100.00
71764;BME280;59602;52.142;5.408;2022-12-26T02:07:25;101180.69;;;8.84;100.00
71764;BME280;59602;52.142;5.408;2022-12-26T02:09:52;101178.34;;;8.82;100.00
71764;BME280;59602;52.142;5.408;2022-12-26T02:12:23;101171.00;;;8.83;100.00
71764;BME280;59602;52.142;5.408;2022-12-26T02:15:05;101166.00;;;8.85;100.00
71764;BME280;59602;52.142;5.408;2022-12-26T02:17:32;101166.78;;;8.85;100.00
71764;BME280;59602;52.142;5.408;2022-12-26T02:25:48;101171.06;;;8.86;100.00
71764;BME280;59602;52.142;5.408;2022-12-26T02:36:38;101167.94;;;8.84;100.00
71764;BME280;59602;52.142;5.408;2022-12-26T02:42:12;101171.34;;;8.81;100.00
71764;BME280;59602;52.142;5.408;2022-12-26T02:44:52;101165.94;;;8.81;100.00
71764;BME280;59602;52.142;5.408;2022-12-26T02:47:50;101170.56;;;8.81;100.00
71764;BME280;59602;52.142;5.408;2022-12-26T02:50:32;101174.44;;;8.80;100.00
71764;BME280;59602;52.142;5.408;2022-12-26T02:56:27;101156.16;;;8.77;100.00
71764;BME280;59602;52.142;5.408;2022-12-26T02:59:23;101147.16;;;8.72;100.00
71764;BME280;59602;52.142;5.408;2022-12-26T03:02:36;101147.13;;;8.69;100.00
71764;BME280;59602;52.142;5.408;2022-12-26T03:05:29;101157.53;;;8.67;100.00
71764;BME280;59602;52.142;5.408;2022-12-26T03:08:31;101150.09;;;8.64;100.00
71764;BME280;59602;52.142;5.408;2022-12-26T03:11:17;101152.81;;;8.64;100.00
71764;BME280;59602;52.142;5.408;2022-12-26T03:14:13;101152.03;;;8.63;100.00
71764;BME280;59602;52.142;5.408;2022-12-26T03:16:45;101147.78;;;8.62;100.00
71764;BME280;59602;52.142;5.408;2022-12-26T03:19:36;101148.53;;;8.63;100.00
71764;BME280;59602;52.142;5.408;2022-12-26T03:22:39;101162.19;;;8.66;100.00
71764;BME280;59602;52.142;5.408;2022-12-26T03:25:16;101170.31;;;8.66;100.00
71764;BME280;59602;52.142;5.408;2022-12-26T03:28:04;101172.66;;;8.68;100.00
71764;BME280;59602;52.142;5.408;2022-12-26T03:30:30;101165.66;;;8.67;100.00
71764;BME280;59602;52.142;5.408;2022-12-26T03:33:17;101163.31;;;8.65;100.00
71764;BME280;59602;52.142;5.408;2022-12-26T03:36:04;101171.88;;;8.67;100.00
71764;BME280;59602;52.142;5.408;2022-12-26T03:41:26;101163.00;;;8.70;100.00
71764;BME280;59602;52.142;5.408;2022-12-26T03:44:29;101162.22;;;8.70;100.00
71764;BME280;59602;52.142;5.408;2022-12-26T03:47:36;101159.88;;;8.68;100.00
71764;BME280;59602;52.142;5.408;2022-12-26T03:50:31;101165.28;;;8.68;100.00
71764;BME280;59602;52.142;5.408;2022-12-26T03:53:23;101169.16;;;8.67;100.00
71764;BME280;59602;52.142;5.408;2022-12-26T03:56:18;101167.22;;;8.68;100.00
71764;BME280;59602;52.142;5.408;2022-12-26T03:59:09;101167.59;;;8.66;100.00
71764;BME280;59602;52.142;5.408;2022-12-26T04:01:59;101166.44;;;8.67;100.00
71764;BME280;59602;52.142;5.408;2022-12-26T04:04:48;101163.38;;;8.69;100.00
71764;BME280;59602;52.142;5.408;2022-12-26T04:07:40;101158.22;;;8.64;100.00
71764;BME280;59602;52.142;5.408;2022-12-26T04:10:31;101164.03;;;8.62;100.00
71764;BME280;59602;52.142;5.408;2022-12-26T04:13:52;101162.81;;;8.60;100.00
71764;BME280;59602;52.142;5.408;2022-12-26T04:16:44;101155.47;;;8.60;100.00
71764;BME280;59602;52.142;5.408;2022-12-26T04:19:49;101156.59;;;8.59;100.00
71764;BME280;59602;52.142;5.408;2022-12-26T04:25:15;101166.66;;;8.59;100.00
71764;BME280;59602;52.142;5.408;2022-12-26T04:28:14;101172.88;;;8.59;100.00
71764;BME280;59602;52.142;5.408;2022-12-26T04:31:06;101170.56;;;8.61;100.00
71764;BME280;59602;52.142;5.408;2022-12-26T04:33:58;101169.03;;;8.60;100.00
71764;BME280;59602;52.142;5.408;2022-12-26T04:36:52;101169.38;;;8.59;100.00
71764;BME280;59602;52.142;5.408;2022-12-26T04:39:43;101177.84;;;8.57;100.00
71764;BME280;59602;52.142;5.408;2022-12-26T04:42:30;101177.06;;;8.57;100.00
71764;BME280;59602;52.142;5.408;2022-12-26T04:45:16;101173.59;;;8.56;100.00
71764;BME280;59602;52.142;5.408;2022-12-26T04:47:44;101176.66;;;8.55;100.00
71764;BME280;59602;52.142;5.408;2022-12-26T04:50:32;101168.88;;;8.53;100.00
71764;BME280;59602;52.142;5.408;2022-12-26T04:52:58;101168.81;;;8.49;100.00
71764;BME280;59602;52.142;5.408;2022-12-26T04:55:29;101161.03;;;8.48;100.00
71764;BME280;59602;52.142;5.408;2022-12-26T04:57:56;101159.47;;;8.47;100.00
71764;BME280;59602;52.142;5.408;2022-12-26T05:00:25;101155.56;;;8.44;100.00
71764;BME280;59602;52.142;5.408;2022-12-26T05:02:54;101161.75;;;8.45;100.00
71764;BME280;59602;52.142;5.408;2022-12-26T05:05:47;101150.91;;;8.45;100.00
71764;BME280;59602;52.142;5.408;2022-12-26T05:08:36;101148.56;;;8.43;100.00
71764;BME280;59602;52.142;5.408;2022-12-26T05:11:22;101145.50;;;8.45;100.00
71764;BME280;59602;52.142;5.408;2022-12-26T05:13:52;101138.88;;;8.42;100.00
71764;BME280;59602;52.142;5.408;2022-12-26T05:16:19;101131.84;;;8.41;100.00
71764;BME280;59602;52.142;5.408;2022-12-26T05:19:05;101132.22;;;8.40;100.00
71764;BME280;59602;52.142;5.408;2022-12-26T05:21:50;101130.97;;;8.37;100.00
71764;BME280;59602;52.142;5.408;2022-12-26T05:24:37;101133.69;;;8.37;100.00
71764;BME280;59602;52.142;5.408;2022-12-26T05:27:24;101135.19;;;8.35;100.00
71764;BME280;59602;52.142;5.408;2022-12-26T05:30:11;101136.34;;;8.34;100.00
71764;BME280;59602;52.142;5.408;2022-12-26T05:32:38;101134.75;;;8.32;100.00
71764;BME280;59602;52.142;5.408;2022-12-26T05:35:23;101150.22;;;8.32;100.00
71764;BME280;59602;52.142;5.408;2022-12-26T05:37:50;101152.06;;;8.28;100.00
71764;BME280;59602;52.142;5.408;2022-12-26T05:40:17;101161.00;;;8.28;100.00
71764;BME280;59602;52.142;5.408;2022-12-26T05:42:43;101157.88;;;8.26;100.00
71764;BME280;59602;52.142;5.408;2022-12-26T05:45:11;101158.56;;;8.23;100.00
71764;BME280;59602;52.142;5.408;2022-12-26T05:47:37;101153.16;;;8.23;100.00
71764;BME280;59602;52.142;5.408;2022-12-26T05:50:05;101166.69;;;8.23;100.00
71764;BME280;59602;52.142;5.408;2022-12-26T05:52:32;101157.78;;;8.23;100.00
71764;BME280;59602;52.142;5.408;2022-12-26T05:54:59;101172.47;;;8.22;100.00
71764;BME280;59602;52.142;5.408;2022-12-26T05:57:25;101170.91;;;8.21;100.00
71764;BME280;59602;52.142;5.408;2022-12-26T05:59:52;101168.19;;;8.21;100.00
71764;BME280;59602;52.142;5.408;2022-12-26T06:02:19;101165.47;;;8.21;100.00
71764;BME280;59602;52.142;5.408;2022-12-26T06:04:46;101154.31;;;8.22;100.00
71764;BME280;59602;52.142;5.408;2022-12-26T06:07:14;101154.66;;;8.21;100.00
71764;BME280;59602;52.142;5.408;2022-12-26T06:09:41;101148.75;;;8.15;100.00
71764;BME280;59602;52.142;5.408;2022-12-26T06:12:10;101144.00;;;8.12;100.00
71764;BME280;59602;52.142;5.408;2022-12-26T06:14:41;101157.13;;;8.10;100.00
71764;BME280;59602;52.142;5.408;2022-12-26T06:17:09;101154.84;;;8.12;100.00
71764;BME280;59602;52.142;5.408;2022-12-26T06:19:37;101157.56;;;8.12;100.00
71764;BME280;59602;52.142;5.408;2022-12-26T06:22:12;101159.81;;;8.10;100.00
71764;BME280;59602;52.142;5.408;2022-12-26T06:24:51;101170.66;;;8.10;100.00
71764;BME280;59602;52.142;5.408;2022-12-26T06:27:17;101156.78;;;8.11;100.00
71764;BME280;59602;52.142;5.408;2022-12-26T06:29:58;101157.94;;;8.10;100.00
71764;BME280;59602;52.142;5.408;2022-12-26T06:32:28;101144.78;;;8.13;100.00
71764;BME280;59602;52.142;5.408;2022-12-26T06:35:06;101151.00;;;8.13;100.00
71764;BME280;59602;52.142;5.408;2022-12-26T06:37:33;101156.00;;;8.11;99.97
71764;BME280;59602;52.142;5.408;2022-12-26T06:40:01;101169.09;;;8.09;100.00
71764;BME280;59602;52.142;5.408;2022-12-26T06:42:54;101159.78;;;8.06;100.00
71764;BME280;59602;52.142;5.408;2022-12-26T06:45:21;101163.16;;;8.03;100.00
71764;BME280;59602;52.142;5.408;2022-12-26T06:47:48;101168.97;;;8.02;100.00
71764;BME280;59602;52.142;5.408;2022-12-26T06:50:15;101169.75;;;8.02;100.00
71764;BME280;59602;52.142;5.408;2022-12-26T06:52:47;101174.44;;;8.05;100.00
71764;BME280;59602;52.142;5.408;2022-12-26T06:55:15;101179.41;;;8.03;100.00
71764;BME280;59602;52.142;5.408;2022-12-26T06:57:42;101179.41;;;8.03;100.00
71764;BME280;59602;52.142;5.408;2022-12-26T07:00:14;101182.13;;;8.03;100.00
71764;BME280;59602;52.142;5.408;2022-12-26T07:02:41;101172.09;;;8.04;100.00
71764;BME280;59602;52.142;5.408;2022-12-26T07:05:08;101180.22;;;8.04;100.00
71764;BME280;59602;52.142;5.408;2022-12-26T07:07:53;101173.66;;;8.05;100.00
71764;BME280;59602;52.142;5.408;2022-12-26T07:10:38;101171.72;;;8.05;100.00
71764;BME280;59602;52.142;5.408;2022-12-26T07:13:19;101177.56;;;8.07;100.00
71764;BME280;59602;52.142;5.408;2022-12-26T07:16:08;101176.88;;;8.10;100.00
71764;BME280;59602;52.142;5.408;2022-12-26T07:19:26;101174.59;;;8.13;100.00
71764;BME280;59602;52.142;5.408;2022-12-26T07:22:20;101167.69;;;8.15;100.00
71764;BME280;59602;52.142;5.408;2022-12-26T07:28:09;101167.69;;;8.15;100.00
71764;BME280;59602;52.142;5.408;2022-12-26T07:30:36;101175.00;;;8.15;100.00
71764;BME280;59602;52.142;5.408;2022-12-26T07:33:05;101162.97;;;8.12;99.94
71764;BME280;59602;52.142;5.408;2022-12-26T07:35:34;101164.56;;;8.13;100.00
71764;BME280;59602;52.142;5.408;2022-12-26T07:38:01;101162.53;;;8.10;100.00
71764;BME280;59602;52.142;5.408;2022-12-26T07:40:27;101153.28;;;8.11;100.00
71764;BME280;59602;52.142;5.408;2022-12-26T07:42:54;101149.38;;;8.08;99.88
71764;BME280;59602;52.142;5.408;2022-12-26T07:45:22;101154.78;;;8.08;99.81
71764;BME280;59602;52.142;5.408;2022-12-26T07:47:53;101152.84;;;8.09;100.00
71764;BME280;59602;52.142;5.408;2022-12-26T07:50:19;101164.13;;;8.11;99.81
71764;BME280;59602;52.142;5.408;2022-12-26T07:52:46;101162.63;;;8.14;99.68
71764;BME280;59602;52.142;5.408;2022-12-26T07:55:13;101170.41;;;8.15;99.59
71764;BME280;59602;52.142;5.408;2022-12-26T07:57:40;101161.47;;;8.15;99.88
71764;BME280;59602;52.142;5.408;2022-12-26T08:00:15;101168.47;;;8.16;99.67
71764;BME280;59602;52.142;5.408;2022-12-26T08:02:41;101176.25;;;8.17;99.76
71764;BME280;59602;52.142;5.408;2022-12-26T08:05:09;101154.59;;;8.17;99.75
71764;BME280;59602;52.142;5.408;2022-12-26T08:07:36;101170.19;;;8.24;99.72
71764;BME280;59602;52.142;5.408;2022-12-26T08:10:06;101176.03;;;8.26;99.93
71764;BME280;59602;52.142;5.408;2022-12-26T08:12:33;101172.97;;;8.27;99.95
71764;BME280;59602;52.142;5.408;2022-12-26T08:15:01;101162.56;;;8.29;99.94
71764;BME280;59602;52.142;5.408;2022-12-26T08:17:32;101158.72;;;8.30;99.85
71764;BME280;59602;52.142;5.408;2022-12-26T08:19:59;101181.63;;;8.33;99.63
71764;BME280;59602;52.142;5.408;2022-12-26T08:22:26;101176.63;;;8.35;99.92
71764;BME280;59602;52.142;5.408;2022-12-26T08:24:52;101177.03;;;8.37;99.84
71764;BME280;59602;52.142;5.408;2022-12-26T08:27:19;101179.75;;;8.37;100.00
71764;BME280;59602;52.142;5.408;2022-12-26T08:29:46;101182.44;;;8.37;100.00
71764;BME280;59602;52.142;5.408;2022-12-26T08:32:14;101186.75;;;8.38;100.00
71764;BME280;59602;52.142;5.408;2022-12-26T08:34:40;101187.22;;;8.40;100.00
71764;BME280;59602;52.142;5.408;2022-12-26T08:37:07;101199.25;;;8.43;100.00
71764;BME280;59602;52.142;5.408;2022-12-26T08:39:34;101200.47;;;8.45;100.00
71764;BME280;59602;52.142;5.408;2022-12-26T08:42:05;101200.13;;;8.47;100.00
71764;BME280;59602;52.142;5.408;2022-12-26T08:44:32;101195.19;;;8.52;100.00
71764;BME280;59602;52.142;5.408;2022-12-26T08:46:58;101197.97;;;8.56;100.00
71764;BME280;59602;52.142;5.408;2022-12-26T08:49:25;101201.91;;;8.59;99.90
71764;BME280;59602;52.142;5.408;2022-12-26T08:51:53;101206.19;;;8.60;99.85
71764;BME280;59602;52.142;5.408;2022-12-26T08:54:19;101219.81;;;8.63;99.83
71764;BME280;59602;52.142;5.408;2022-12-26T08:56:46;101213.25;;;8.64;99.78
71764;BME280;59602;52.142;5.408;2022-12-26T08:59:12;101214.47;;;8.67;99.96
71764;BME280;59602;52.142;5.408;2022-12-26T09:01:40;101224.94;;;8.68;99.90
71764;BME280;59602;52.142;5.408;2022-12-26T09:04:06;101223.81;;;8.69;99.88
71764;BME280;59602;52.142;5.408;2022-12-26T09:06:35;101236.56;;;8.69;100.00
71764;BME280;59602;52.142;5.408;2022-12-26T09:09:03;101241.63;;;8.70;99.72
71764;BME280;59602;52.142;5.408;2022-12-26T09:11:30;101240.50;;;8.71;99.83
71764;BME280;59602;52.142;5.408;2022-12-26T09:13:59;101249.41;;;8.72;100.00
71764;BME280;59602;52.142;5.408;2022-12-26T09:16:30;101268.03;;;8.73;99.88
71764;BME280;59602;52.142;5.408;2022-12-26T09:19:05;101263.41;;;8.74;99.85
71764;BME280;59602;52.142;5.408;2022-12-26T09:21:33;101271.19;;;8.76;100.00
71764;BME280;59602;52.142;5.408;2022-12-26T09:24:03;101268.91;;;8.78;99.67
71764;BME280;59602;52.142;5.408;2022-12-26T09:26:32;101295.22;;;8.77;99.62
71764;BME280;59602;52.142;5.408;2022-12-26T09:28:59;101297.13;;;8.77;99.66
71764;BME280;59602;52.142;5.408;2022-12-26T09:31:28;101316.47;;;8.75;99.21
71764;BME280;59602;52.142;5.408;2022-12-26T09:33:55;101320.34;;;8.74;99.61
71764;BME280;59602;52.142;5.408;2022-12-26T09:36:26;101323.38;;;8.72;99.53
71764;BME280;59602;52.142;5.408;2022-12-26T09:38:54;101326.47;;;8.71;99.45
71764;BME280;59602;52.142;5.408;2022-12-26T09:44:11;101338.53;;;8.73;99.38
71764;BME280;59602;52.142;5.408;2022-12-26T09:46:56;101344.28;;;8.72;98.90
71764;BME280;59602;52.142;5.408;2022-12-26T09:49:31;101348.50;;;8.69;99.03
71764;BME280;59602;52.142;5.408;2022-12-26T09:52:04;101366.25;;;8.67;98.87
71764;BME280;59602;52.142;5.408;2022-12-26T09:54:39;101377.44;;;8.65;98.63
71764;BME280;59602;52.142;5.408;2022-12-26T09:57:17;101385.53;;;8.62;98.63
71764;BME280;59602;52.142;5.408;2022-12-26T09:59:51;101401.25;;;8.56;98.13
71764;BME280;59602;52.142;5.408;2022-12-26T10:02:22;101420.84;;;8.49;97.51
71764;BME280;59602;52.142;5.408;2022-12-26T10:04:50;101440.28;;;8.39;96.16
71764;BME280;59602;52.142;5.408;2022-12-26T10:07:34;101444.66;;;8.28;94.21
71764;BME280;59602;52.142;5.408;2022-12-26T10:10:13;101436.00;;;8.22;93.20
71764;BME280;59602;52.142;5.408;2022-12-26T10:15:43;101441.84;;;8.08;92.27
71764;BME280;59602;52.142;5.408;2022-12-26T10:18:26;101460.28;;;8.03;91.50
71764;BME280;59602;52.142;5.408;2022-12-26T10:23:55;101467.31;;;7.92;89.74
71764;BME280;59602;52.142;5.408;2022-12-26T10:26:31;101482.22;;;7.85;89.12
71764;BME280;59602;52.142;5.408;2022-12-26T10:29:11;101483.72;;;7.83;88.88
71764;BME280;59602;52.142;5.408;2022-12-26T10:32:04;101499.88;;;7.79;88.65
71764;BME280;59602;52.142;5.408;2022-12-26T10:34:40;101497.16;;;7.79;88.54
71764;BME280;59602;52.142;5.408;2022-12-26T10:37:20;101494.44;;;7.79;88.76
71764;BME280;59602;52.142;5.408;2022-12-26T10:40:16;101506.72;;;7.77;88.91
71764;BME280;59602;52.142;5.408;2022-12-26T10:42:47;101502.47;;;7.76;88.71
71764;BME280;59602;52.142;5.408;2022-12-26T10:45:21;101505.06;;;7.72;89.01
71764;BME280;59602;52.142;5.408;2022-12-26T10:47:53;101501.47;;;7.68;88.65
71764;BME280;59602;52.142;5.408;2022-12-26T10:50:28;101506.44;;;7.66;88.41
71764;BME280;59602;52.142;5.408;2022-12-26T10:52:57;101508.34;;;7.65;88.20
71764;BME280;59602;52.142;5.408;2022-12-26T10:55:28;101526.63;;;7.68;88.06
71764;BME280;59602;52.142;5.408;2022-12-26T11:00:42;101523.81;;;7.65;88.03
71764;BME280;59602;52.142;5.408;2022-12-26T11:03:12;101525.41;;;7.66;87.75
71764;BME280;59602;52.142;5.408;2022-12-26T11:05:46;101516.13;;;7.67;87.80
71764;BME280;59602;52.142;5.408;2022-12-26T11:08:37;101523.13;;;7.68;87.61
71764;BME280;59602;52.142;5.408;2022-12-26T11:11:21;101537.78;;;7.67;87.11
71764;BME280;59602;52.142;5.408;2022-12-26T11:13:55;101546.22;;;7.65;86.88
71764;BME280;59602;52.142;5.408;2022-12-26T11:16:32;101548.72;;;7.71;86.96
71764;BME280;59602;52.142;5.408;2022-12-26T11:19:00;101546.88;;;7.75;86.77
71764;BME280;59602;52.142;5.408;2022-12-26T11:21:28;101544.63;;;7.77;86.24
71764;BME280;59602;52.142;5.408;2022-12-26T11:26:32;101557.03;;;7.78;86.10
71764;BME280;59602;52.142;5.408;2022-12-26T11:29:08;101564.72;;;7.76;86.02
71764;BME280;59602;52.142;5.408;2022-12-26T11:31:38;101557.63;;;7.71;85.80
71764;BME280;59602;52.142;5.408;2022-12-26T11:34:09;101561.03;;;7.68;85.71
71764;BME280;59602;52.142;5.408;2022-12-26T11:36:38;101570.25;;;7.67;86.25
71764;BME280;59602;52.142;5.408;2022-12-26T11:39:23;101583.69;;;7.63;85.91
71764;BME280;59602;52.142;5.408;2022-12-26T11:41:51;101581.31;;;7.62;85.82
71764;BME280;59602;52.142;5.408;2022-12-26T11:44:25;101586.75;;;7.62;85.83
71764;BME280;59602;52.142;5.408;2022-12-26T11:46:59;101597.22;;;7.63;85.91
71764;BME280;59602;52.142;5.408;2022-12-26T11:49:35;101586.75;;;7.62;85.24
71764;BME280;59602;52.142;5.408;2022-12-26T11:52:34;101591.00;;;7.63;85.46
71764;BME280;59602;52.142;5.408;2022-12-26T12:03:16;101591.78;;;7.76;85.54
71764;BME280;59602;52.142;5.408;2022-12-26T12:13:44;101598.56;;;7.82;84.25
71764;BME280;59602;52.142;5.408;2022-12-26T12:19:02;101594.94;;;7.78;82.83
71764;BME280;59602;52.142;5.408;2022-12-26T12:24:35;101596.75;;;7.74;80.84
71764;BME280;59602;52.142;5.408;2022-12-26T12:27:10;101602.88;;;7.71;81.10
71764;BME280;59602;52.142;5.408;2022-12-26T12:35:15;101608.41;;;7.62;81.11
71764;BME280;59602;52.142;5.408;2022-12-26T12:38:01;101605.69;;;7.62;80.90
71764;BME280;59602;52.142;5.408;2022-12-26T12:45:46;101620.13;;;7.54;80.64
71764;BME280;59602;52.142;5.408;2022-12-26T12:59:14;101635.47;;;7.62;80.44
71764;BME280;59602;52.142;5.408;2022-12-26T13:01:46;101634.69;;;7.61;78.50
71764;BME280;59602;52.142;5.408;2022-12-26T13:04:19;101635.78;;;7.60;77.92
71764;BME280;59602;52.142;5.408;2022-12-26T13:06:55;101628.13;;;7.62;77.76
71764;BME280;59602;52.142;5.408;2022-12-26T13:09:29;101628.25;;;7.66;77.54
71764;BME280;59602;52.142;5.408;2022-12-26T13:12:03;101640.19;;;7.65;76.43
71764;BME280;59602;52.142;5.408;2022-12-26T13:14:36;101640.19;;;7.65;75.84
71764;BME280;59602;52.142;5.408;2022-12-26T13:17:15;101641.19;;;7.60;74.74
71764;BME280;59602;52.142;5.408;2022-12-26T13:22:37;101658.47;;;7.56;74.63
71764;BME280;59602;52.142;5.408;2022-12-26T13:25:26;101651.56;;;7.58;74.44
71764;BME280;59602;52.142;5.408;2022-12-26T13:27:57;101649.00;;;7.62;74.89
71764;BME280;59602;52.142;5.408;2022-12-26T13:30:35;101653.38;;;7.66;75.24
71764;BME280;59602;52.142;5.408;2022-12-26T13:33:03;101657.00;;;7.71;75.97
71764;BME280;59602;52.142;5.408;2022-12-26T13:35:56;101669.72;;;7.70;76.35
71764;BME280;59602;52.142;5.408;2022-12-26T13:38:25;101658.56;;;7.72;77.34
71764;BME280;59602;52.142;5.408;2022-12-26T13:41:19;101660.38;;;7.80;78.64
71764;BME280;59602;52.142;5.408;2022-12-26T13:44:06;101666.69;;;7.84;77.62
71764;BME280;59602;52.142;5.408;2022-12-26T13:49:30;101673.66;;;7.85;76.28
71764;BME280;59602;52.142;5.408;2022-12-26T13:52:34;101671.28;;;7.83;75.23
71764;BME280;59602;52.142;5.408;2022-12-26T14:00:03;101685.53;;;7.68;73.94
71764;BME280;59602;52.142;5.408;2022-12-26T14:16:52;101709.97;;;7.35;71.90
71764;BME280;59602;52.142;5.408;2022-12-26T14:19:44;101720.97;;;7.30;71.75
71764;BME280;59602;52.142;5.408;2022-12-26T14:22:53;101725.06;;;7.23;71.91
71764;BME280;59602;52.142;5.408;2022-12-26T14:25:29;101720.19;;;7.17;72.13
71764;BME280;59602;52.142;5.408;2022-12-26T14:28:23;101748.56;;;7.11;72.13
71764;BME280;59602;52.142;5.408;2022-12-26T14:30:57;101749.66;;;7.10;72.06
71764;BME280;59602;52.142;5.408;2022-12-26T14:33:34;101746.19;;;7.09;71.77
71764;BME280;59602;52.142;5.408;2022-12-26T14:36:23;101754.28;;;7.09;72.33
71764;BME280;59602;52.142;5.408;2022-12-26T14:39:02;101760.81;;;7.08;72.42
71764;BME280;59602;52.142;5.408;2022-12-26T14:44:55;101762.00;;;6.98;72.42
71764;BME280;59602;52.142;5.408;2022-12-26T14:47:41;101769.66;;;6.96;72.94
71764;BME280;59602;52.142;5.408;2022-12-26T14:53:27;101773.72;;;6.90;73.29
71764;BME280;59602;52.142;5.408;2022-12-26T14:56:28;101774.69;;;6.85;73.24
71764;BME280;59602;52.142;5.408;2022-12-26T15:02:00;101775.50;;;6.86;73.41
71764;BME280;59602;52.142;5.408;2022-12-26T15:10:30;101785.19;;;6.66;73.46
71764;BME280;59602;52.142;5.408;2022-12-26T15:19:10;101807.06;;;6.52;74.17
71764;BME280;59602;52.142;5.408;2022-12-26T15:22:00;101810.84;;;6.51;74.24
71764;BME280;59602;52.142;5.408;2022-12-26T15:24:52;101812.78;;;6.51;74.26
71764;BME280;59602;52.142;5.408;2022-12-26T15:33:38;101812.66;;;6.38;75.40
71764;BME280;59602;52.142;5.408;2022-12-26T15:36:18;101814.31;;;6.31;75.51
71764;BME280;59602;52.142;5.408;2022-12-26T15:38:57;101837.22;;;6.24;75.60
71764;BME280;59602;52.142;5.408;2022-12-26T15:41:36;101826.59;;;6.19;76.05
71764;BME280;59602;52.142;5.408;2022-12-26T15:44:22;101826.91;;;6.18;76.08
71764;BME280;59602;52.142;5.408;2022-12-26T15:47:05;101822.66;;;6.17;76.90
71764;BME280;59602;52.142;5.408;2022-12-26T15:52:46;101838.88;;;6.08;76.99
71764;BME280;59602;52.142;5.408;2022-12-26T15:55:38;101840.94;;;6.02;76.90
71764;BME280;59602;52.142;5.408;2022-12-26T15:58:32;101839.69;;;6.00;77.28
71764;BME280;59602;52.142;5.408;2022-12-26T16:01:01;101849.53;;;5.96;77.74